Time;durP1;ratioP1;P1;durP2;ratioP2;P2;SDS_P1;SDS_P2;PMS_P1;PMS_P2;Temp;Humidity;BMP_temperature;BMP_pressure;BME280_temperature;BME280_humidity;BME280_pressure;Samples;Min_cycle;Max_cycle;Signal;HPM_P1;HPM_P2
2023/06/23 00:02:05;;;;;;;6.97;3.67;;;19.80;99.90;;;;;;4996407;28;20636;-85
2023/06/23 00:04:30;;;;;;;5.60;3.07;;;19.80;99.90;;;;;;4997434;28;21013;-84
2023/06/23 00:07:00;;;;;;;5.30;4.00;;;19.70;99.90;;;;;;4996208;28;20523;-83
2023/06/23 00:09:25;;;;;;;6.40;3.80;;;19.60;99.90;;;;;;4996116;28;20273;-87
2023/06/23 00:11:51;;;;;;;5.17;3.40;;;19.70;99.90;;;;;;4995662;28;20548;-85
2023/06/23 00:14:17;;;;;;;7.33;3.40;;;19.70;99.90;;;;;;4997384;28;20261;-87
2023/06/23 00:16:42;;;;;;;6.63;3.77;;;19.60;99.90;;;;;;4997139;28;20218;-90
2023/06/23 00:19:08;;;;;;;6.60;3.67;;;19.60;99.90;;;;;;4996281;28;20171;-86
2023/06/23 00:21:33;;;;;;;5.50;3.20;;;19.60;99.90;;;;;;4997243;28;20171;-85
2023/06/23 00:23:59;;;;;;;6.03;2.73;;;19.60;99.90;;;;;;4997230;28;20634;-88
2023/06/23 00:26:24;;;;;;;4.70;3.57;;;19.60;99.90;;;;;;4995982;28;20234;-89
2023/06/23 00:28:51;;;;;;;5.30;3.77;;;19.50;99.90;;;;;;4997665;28;20659;-86
2023/06/23 00:31:16;;;;;;;5.07;3.47;;;19.40;99.90;;;;;;4996011;28;20178;-87
2023/06/23 00:33:42;;;;;;;6.90;3.93;;;19.40;99.90;;;;;;4997089;28;20433;-86
2023/06/23 00:36:08;;;;;;;5.17;3.80;;;19.40;99.90;;;;;;4997080;28;20166;-87
2023/06/23 00:38:36;;;;;;;6.10;3.70;;;19.40;99.90;;;;;;4995926;28;20236;-86
2023/06/23 00:41:02;;;;;;;4.90;3.90;;;19.40;99.90;;;;;;4996727;28;20178;-89
2023/06/23 00:43:30;;;;;;;6.13;3.73;;;19.40;99.90;;;;;;4995684;28;20430;-84
2023/06/23 00:45:59;;;;;;;4.50;3.47;;;19.30;99.90;;;;;;4995730;28;20945;-87
2023/06/23 00:48:24;;;;;;;4.63;3.53;;;19.30;99.90;;;;;;4995597;28;20433;-85
2023/06/23 00:50:50;;;;;;;5.20;2.70;;;19.30;99.90;;;;;;4996870;28;20425;-86
2023/06/23 00:53:17;;;;;;;4.47;3.50;;;19.20;99.90;;;;;;4996040;28;20249;-83
2023/06/23 00:55:46;;;;;;;5.77;3.27;;;19.30;99.90;;;;;;4994778;28;20536;-88
2023/06/23 00:58:12;;;;;;;7.93;3.10;;;19.30;99.90;;;;;;4996783;28;20910;-86
2023/06/23 01:00:37;;;;;;;4.93;2.90;;;19.30;99.90;;;;;;4996514;28;20424;-82
2023/06/23 01:03:03;;;;;;;5.00;2.40;;;19.20;99.90;;;;;;4996638;28;20229;-85
2023/06/23 01:05:37;;;;;;;5.00;3.00;;;19.20;99.90;;;;;;4996538;28;20204;-86
2023/06/23 01:08:05;;;;;;;5.33;3.30;;;19.30;99.90;;;;;;4995025;28;20642;-81
2023/06/23 01:10:36;;;;;;;5.00;2.90;;;19.30;99.90;;;;;;4995901;28;20429;-82
2023/06/23 01:13:07;;;;;;;7.97;3.87;;;19.20;99.90;;;;;;4996051;28;20469;-84
2023/06/23 01:15:41;;;;;;;5.30;3.03;;;19.30;99.90;;;;;;4995746;28;20520;-81
2023/06/23 01:18:24;;;;;;;6.33;3.50;;;19.20;99.90;;;;;;5011230;28;20434;-81
2023/06/23 01:20:52;;;;;;;6.07;3.40;;;19.20;99.90;;;;;;4995927;28;20412;-89
2023/06/23 01:23:33;;;;;;;5.20;3.40;;;19.00;99.90;;;;;;4995924;28;20428;-84
2023/06/23 01:26:26;;;;;;;6.53;3.77;;;19.10;99.90;;;;;;4995544;28;20446;-81
2023/06/23 01:29:08;;;;;;;5.33;3.07;;;19.00;99.90;;;;;;4995996;28;20411;-86
2023/06/23 01:31:56;;;;;;;5.40;3.80;;;19.00;99.90;;;;;;4995850;28;20499;-82
2023/06/23 01:34:28;;;;;;;5.23;3.43;;;19.00;99.90;;;;;;4995576;28;20461;-83
2023/06/23 01:37:00;;;;;;;3.93;3.00;;;18.90;99.90;;;;;;4995834;28;20411;-80
2023/06/23 01:39:30;;;;;;;4.23;2.90;;;18.90;99.90;;;;;;4995465;28;20488;-87
2023/06/23 01:42:03;;;;;;;3.00;2.70;;;18.80;99.90;;;;;;4995620;28;20420;-80
2023/06/23 01:44:31;;;;;;;6.30;3.70;;;18.80;99.90;;;;;;4995571;28;20416;-81
2023/06/23 01:47:01;;;;;;;5.57;2.70;;;18.90;99.90;;;;;;4995444;28;20416;-83
2023/06/23 01:49:31;;;;;;;2.80;2.10;;;18.90;99.90;;;;;;4995393;28;20432;-81
2023/06/23 01:51:57;;;;;;;5.60;2.27;;;18.90;99.90;;;;;;4995329;28;20539;-80
2023/06/23 01:54:24;;;;;;;5.83;2.30;;;18.90;99.90;;;;;;4995169;28;20431;-83
2023/06/23 01:56:51;;;;;;;4.97;3.10;;;19.00;99.90;;;;;;4995127;28;20487;-88
2023/06/23 01:59:18;;;;;;;5.30;2.43;;;18.90;99.90;;;;;;4995252;28;20415;-79
2023/06/23 02:01:45;;;;;;;5.60;3.23;;;19.00;99.90;;;;;;4995153;28;20503;-81
2023/06/23 02:04:12;;;;;;;5.50;3.90;;;18.90;99.90;;;;;;4995100;28;20778;-81
2023/06/23 02:06:39;;;;;;;4.20;3.13;;;18.80;99.90;;;;;;4994791;28;20432;-81
2023/06/23 02:09:08;;;;;;;4.03;3.57;;;18.80;99.90;;;;;;4994009;28;20444;-82
2023/06/23 02:11:35;;;;;;;9.37;4.60;;;18.90;99.90;;;;;;4993203;28;20441;-80
2023/06/23 02:14:01;;;;;;;5.17;3.53;;;18.90;99.90;;;;;;4994867;28;20421;-85
2023/06/23 02:16:30;;;;;;;4.40;2.90;;;18.80;99.90;;;;;;4993411;28;20559;-81
2023/06/23 02:18:57;;;;;;;5.03;3.90;;;18.80;99.90;;;;;;4994785;28;20413;-83
2023/06/23 02:21:24;;;;;;;4.73;3.77;;;18.70;99.90;;;;;;4994722;28;20822;-80
2023/06/23 02:23:51;;;;;;;5.43;3.80;;;18.70;99.90;;;;;;4994653;28;20424;-80
2023/06/23 02:26:17;;;;;;;7.37;5.17;;;18.70;99.90;;;;;;4994293;28;20421;-80
2023/06/23 02:28:49;;;;;;;6.70;4.73;;;18.60;99.90;;;;;;4994542;28;20485;-80
2023/06/23 02:31:18;;;;;;;5.90;4.10;;;18.60;99.90;;;;;;4994479;28;20404;-79
2023/06/23 02:33:44;;;;;;;7.03;4.50;;;18.60;99.90;;;;;;4994408;28;20954;-80
2023/06/23 02:36:11;;;;;;;4.23;2.97;;;18.70;99.90;;;;;;4994407;28;20417;-80
2023/06/23 02:38:38;;;;;;;5.57;4.70;;;18.60;99.90;;;;;;4994449;28;20189;-88
2023/06/23 02:41:08;;;;;;;7.77;4.67;;;18.50;99.90;;;;;;4994012;28;20428;-83
2023/06/23 02:43:39;;;;;;;6.43;4.63;;;18.50;99.90;;;;;;4994310;28;20416;-81
2023/06/23 02:46:08;;;;;;;6.20;4.57;;;18.50;99.90;;;;;;4994294;28;20423;-81
2023/06/23 02:48:37;;;;;;;7.07;5.07;;;18.50;99.90;;;;;;4994377;28;20423;-80
2023/06/23 02:51:05;;;;;;;6.43;4.90;;;18.50;99.90;;;;;;4994263;28;20516;-80
2023/06/23 02:53:36;;;;;;;6.57;4.53;;;18.50;99.90;;;;;;4993593;28;20620;-81
2023/06/23 02:56:06;;;;;;;6.57;4.20;;;18.60;99.90;;;;;;4993869;28;20418;-79
2023/06/23 02:58:32;;;;;;;4.43;3.40;;;18.60;99.90;;;;;;4994033;28;20422;-81
2023/06/23 03:01:01;;;;;;;5.40;2.63;;;18.60;99.90;;;;;;4994048;28;20421;-81
2023/06/23 03:03:28;;;;;;;3.57;3.27;;;18.60;99.90;;;;;;4993947;28;20423;-80
2023/06/23 03:05:56;;;;;;;5.97;4.50;;;18.60;99.90;;;;;;4994143;28;20470;-80
2023/06/23 03:08:23;;;;;;;3.13;2.80;;;18.70;99.90;;;;;;4994102;28;20473;-81
2023/06/23 03:10:48;;;;;;;4.30;3.17;;;18.70;99.90;;;;;;4993752;28;20422;-87
2023/06/23 03:13:14;;;;;;;4.37;3.03;;;18.70;99.90;;;;;;4994045;28;20473;-80
2023/06/23 03:15:40;;;;;;;3.50;2.70;;;18.70;99.90;;;;;;4993695;28;20279;-80
2023/06/23 03:18:15;;;;;;;3.73;2.80;;;18.70;99.90;;;;;;4992131;28;20223;-81
2023/06/23 03:20:46;;;;;;;6.20;3.80;;;18.70;99.90;;;;;;4993936;28;20775;-89
2023/06/23 03:23:21;;;;;;;5.00;3.50;;;18.70;99.90;;;;;;4993737;28;20770;-80
2023/06/23 03:25:47;;;;;;;4.73;3.93;;;18.60;99.90;;;;;;4993363;28;20472;-85
2023/06/23 03:28:25;;;;;;;3.90;3.50;;;18.60;99.90;;;;;;4993915;28;20412;-81
2023/06/23 03:30:58;;;;;;;4.47;3.80;;;18.70;99.90;;;;;;4993600;28;20417;-80
2023/06/23 03:33:33;;;;;;;3.97;3.07;;;18.60;99.90;;;;;;4993793;28;20467;-82
2023/06/23 03:36:06;;;;;;;4.13;2.67;;;18.60;99.90;;;;;;4992529;28;20430;-86
2023/06/23 03:38:37;;;;;;;6.67;3.87;;;18.60;99.90;;;;;;5008811;28;20558;-87
2023/06/23 03:41:08;;;;;;;5.97;3.87;;;18.60;99.90;;;;;;5008487;28;20432;-85
2023/06/23 03:43:48;;;;;;;4.67;2.87;;;18.60;99.90;;;;;;4993687;28;20969;-82
2023/06/23 03:46:23;;;;;;;3.37;3.00;;;18.70;99.90;;;;;;4993597;28;20416;-81
2023/06/23 03:48:54;;;;;;;4.73;3.17;;;18.70;99.90;;;;;;4993625;28;20397;-83
2023/06/23 03:51:22;;;;;;;5.87;4.90;;;18.70;99.90;;;;;;4993517;28;20414;-85
2023/06/23 03:53:50;;;;;;;4.53;4.03;;;18.80;99.90;;;;;;4993526;28;20427;-88
2023/06/23 03:56:16;;;;;;;5.17;3.53;;;18.80;99.90;;;;;;5008244;28;20751;-87
2023/06/23 03:58:45;;;;;;;5.53;4.00;;;18.90;99.90;;;;;;4993484;28;20559;-82
2023/06/23 04:01:12;;;;;;;5.00;3.30;;;18.90;99.90;;;;;;4993551;28;20431;-82
2023/06/23 04:03:38;;;;;;;4.40;3.70;;;18.90;99.90;;;;;;4993417;28;20938;-82
2023/06/23 04:06:07;;;;;;;6.23;4.33;;;18.90;99.90;;;;;;4993446;28;20420;-81
2023/06/23 04:08:35;;;;;;;5.20;4.70;;;18.90;99.90;;;;;;4993392;28;20417;-83
2023/06/23 04:11:03;;;;;;;4.93;3.60;;;18.90;99.90;;;;;;4992993;28;20878;-82
2023/06/23 04:13:37;;;;;;;6.23;4.43;;;19.00;99.90;;;;;;4993164;28;20986;-82
2023/06/23 04:16:03;;;;;;;5.70;4.17;;;19.00;99.90;;;;;;4993018;28;20464;-82
2023/06/23 04:18:31;;;;;;;6.23;4.47;;;19.00;99.90;;;;;;4993247;28;20481;-82
2023/06/23 04:20:57;;;;;;;4.90;3.10;;;19.00;99.90;;;;;;4993188;28;20759;-83
2023/06/23 04:23:25;;;;;;;5.73;3.90;;;19.00;99.90;;;;;;4991718;28;20923;-81
2023/06/23 04:25:51;;;;;;;5.90;3.77;;;18.90;99.90;;;;;;4990671;28;20443;-83
2023/06/23 04:28:22;;;;;;;6.10;3.20;;;18.90;99.90;;;;;;4993104;28;20883;-84
2023/06/23 04:30:48;;;;;;;6.07;2.97;;;18.90;99.90;;;;;;4996651;28;20441;-86
2023/06/23 04:33:14;;;;;;;3.67;2.70;;;18.90;99.90;;;;;;4996656;28;20824;-81
2023/06/23 04:35:39;;;;;;;5.57;3.73;;;18.90;99.90;;;;;;4996707;28;20473;-80
2023/06/23 04:38:10;;;;;;;4.57;2.80;;;18.90;99.90;;;;;;4996607;28;20533;-81
2023/06/23 04:40:56;;;;;;;3.87;3.13;;;18.90;99.90;;;;;;4996306;28;20262;-84
2023/06/23 04:43:28;;;;;;;5.47;2.80;;;18.90;99.90;;;;;;4996618;28;20418;-81
2023/06/23 04:45:59;;;;;;;4.33;3.10;;;18.90;99.90;;;;;;4996592;28;20412;-82
2023/06/23 04:48:29;;;;;;;3.83;2.73;;;18.90;99.90;;;;;;4996443;28;20533;-80
2023/06/23 04:50:57;;;;;;;4.70;2.90;;;18.90;99.90;;;;;;4996277;28;20422;-79
2023/06/23 04:53:32;;;;;;;3.43;3.00;;;19.00;99.90;;;;;;4996250;28;20560;-79
2023/06/23 04:56:02;;;;;;;4.07;3.20;;;19.00;99.90;;;;;;4995924;28;20790;-82
2023/06/23 04:58:31;;;;;;;6.17;3.00;;;19.00;99.90;;;;;;4995716;28;20459;-81
2023/06/23 05:00:57;;;;;;;6.70;2.60;;;19.00;99.90;;;;;;4996063;28;20487;-81
2023/06/23 05:03:24;;;;;;;3.20;2.27;;;19.00;99.90;;;;;;4992947;28;20445;-81
2023/06/23 05:05:55;;;;;;;4.70;2.60;;;19.10;99.90;;;;;;4996055;28;20886;-81
2023/06/23 05:08:25;;;;;;;5.00;3.40;;;19.10;99.90;;;;;;4995890;28;20528;-81
2023/06/23 05:10:52;;;;;;;3.97;2.43;;;19.10;99.90;;;;;;4995575;28;20429;-85
2023/06/23 05:13:20;;;;;;;3.63;2.97;;;19.20;99.90;;;;;;4995401;28;20481;-85
2023/06/23 05:15:49;;;;;;;5.30;1.73;;;19.20;99.90;;;;;;4995097;28;20466;-83
2023/06/23 05:18:17;;;;;;;3.37;2.53;;;19.20;99.90;;;;;;4993952;28;21008;-81
2023/06/23 05:20:44;;;;;;;6.43;3.13;;;19.20;99.90;;;;;;4994575;28;20483;-81
2023/06/23 05:23:12;;;;;;;3.70;2.30;;;19.10;99.90;;;;;;4994573;28;20747;-81
2023/06/23 05:25:38;;;;;;;6.10;2.20;;;19.10;99.90;;;;;;4995388;28;20425;-81
2023/06/23 05:28:05;;;;;;;2.63;1.70;;;19.10;99.90;;;;;;4995714;28;21016;-81
2023/06/23 05:30:32;;;;;;;4.10;2.27;;;19.10;99.90;;;;;;4995578;28;20262;-81
2023/06/23 05:33:00;;;;;;;3.70;2.60;;;19.20;99.90;;;;;;4995514;28;20465;-81
2023/06/23 05:35:26;;;;;;;3.50;2.20;;;19.10;99.90;;;;;;4995587;28;20418;-83
2023/06/23 05:37:53;;;;;;;4.40;3.40;;;19.20;99.90;;;;;;4995520;28;21110;-83
2023/06/23 05:40:18;;;;;;;4.97;2.70;;;19.20;99.90;;;;;;4994259;28;20434;-82
2023/06/23 05:42:45;;;;;;;4.37;2.90;;;19.20;99.90;;;;;;4995352;28;20428;-82
2023/06/23 05:45:11;;;;;;;4.17;2.07;;;19.20;99.90;;;;;;4995367;28;20175;-83
2023/06/23 05:47:59;;;;;;;4.40;3.13;;;19.30;99.90;;;;;;4995376;28;20425;-82
2023/06/23 05:50:32;;;;;;;4.10;2.60;;;19.40;99.90;;;;;;4995115;28;20471;-81
2023/06/23 05:53:02;;;;;;;5.03;2.40;;;19.50;99.90;;;;;;4995257;28;20869;-83
2023/06/23 05:55:32;;;;;;;5.47;2.80;;;19.40;99.90;;;;;;4994594;28;20405;-84
2023/06/23 05:58:02;;;;;;;6.87;3.03;;;19.50;99.90;;;;;;4995025;28;20429;-84
2023/06/23 06:00:38;;;;;;;3.37;2.30;;;19.40;99.90;;;;;;4993622;28;20424;-81
2023/06/23 06:03:07;;;;;;;3.83;2.40;;;19.50;99.90;;;;;;4993829;28;20434;-83
2023/06/23 06:05:34;;;;;;;4.50;2.47;;;19.50;99.90;;;;;;4995048;28;20943;-84
2023/06/23 06:08:00;;;;;;;3.40;2.10;;;19.50;99.90;;;;;;4994914;28;20785;-85
2023/06/23 06:10:27;;;;;;;4.10;2.20;;;19.60;99.90;;;;;;4994590;28;20460;-84
2023/06/23 06:12:55;;;;;;;4.50;2.10;;;19.60;99.90;;;;;;4994823;28;20483;-85
2023/06/23 06:15:21;;;;;;;4.17;2.50;;;19.70;99.90;;;;;;4994557;28;20454;-85
2023/06/23 06:17:47;;;;;;;3.87;2.53;;;19.60;99.90;;;;;;4994789;28;20939;-82
2023/06/23 06:20:16;;;;;;;3.80;2.77;;;19.70;99.90;;;;;;4994612;28;20448;-83
2023/06/23 06:22:44;;;;;;;3.10;1.97;;;19.70;99.90;;;;;;4994500;28;20418;-86
2023/06/23 06:25:12;;;;;;;3.67;2.37;;;19.70;99.90;;;;;;5009303;28;20431;-82
2023/06/23 06:27:41;;;;;;;5.83;3.30;;;19.80;99.90;;;;;;4994631;28;20906;-81
2023/06/23 06:30:10;;;;;;;2.93;2.17;;;19.80;99.90;;;;;;4994576;28;20423;-86
2023/06/23 06:32:38;;;;;;;5.03;2.40;;;19.80;99.90;;;;;;4993173;28;20709;-83
2023/06/23 06:35:08;;;;;;;3.90;2.27;;;19.80;99.90;;;;;;4994551;28;20416;-81
2023/06/23 06:37:36;;;;;;;3.53;2.70;;;19.80;99.90;;;;;;4994563;28;20981;-85
2023/06/23 06:40:06;;;;;;;4.47;2.70;;;19.90;99.90;;;;;;4986566;28;20827;-85
2023/06/23 06:42:32;;;;;;;3.10;2.70;;;19.90;99.90;;;;;;4994289;28;20419;-85
2023/06/23 06:44:58;;;;;;;3.40;2.70;;;19.90;99.90;;;;;;4994228;28;20441;-84
2023/06/23 06:47:24;;;;;;;3.50;3.07;;;20.00;99.90;;;;;;4994419;28;20535;-85
2023/06/23 06:49:52;;;;;;;3.63;3.07;;;20.00;99.90;;;;;;4994290;28;20253;-84
2023/06/23 06:52:18;;;;;;;3.90;3.00;;;20.10;99.90;;;;;;4993236;28;20457;-85
2023/06/23 06:54:44;;;;;;;3.40;2.70;;;20.20;99.90;;;;;;4993632;28;20997;-85
2023/06/23 06:57:10;;;;;;;4.07;3.07;;;20.30;99.90;;;;;;4994200;28;20458;-86
2023/06/23 06:59:36;;;;;;;3.30;2.67;;;20.30;99.90;;;;;;4994104;28;20288;-85
2023/06/23 07:02:05;;;;;;;4.33;3.53;;;20.40;99.90;;;;;;4994037;28;20494;-86
2023/06/23 07:04:31;;;;;;;4.60;3.80;;;20.50;99.90;;;;;;4994028;28;20190;-85
2023/06/23 07:06:56;;;;;;;4.30;3.23;;;20.50;99.90;;;;;;4994008;28;20464;-85
2023/06/23 07:09:22;;;;;;;3.60;2.77;;;20.60;99.90;;;;;;4993553;28;20454;-83
2023/06/23 07:11:48;;;;;;;5.83;2.93;;;20.60;99.90;;;;;;4993852;28;20206;-83
2023/06/23 07:14:14;;;;;;;5.50;3.40;;;20.70;99.90;;;;;;4993923;28;20648;-83
2023/06/23 07:16:40;;;;;;;3.50;2.30;;;20.70;99.90;;;;;;4993658;28;20463;-84
2023/06/23 07:19:05;;;;;;;2.90;2.50;;;20.80;99.90;;;;;;4993856;28;20538;-83
2023/06/23 07:21:32;;;;;;;4.27;3.50;;;20.80;99.90;;;;;;4993787;28;20287;-82
2023/06/23 07:23:58;;;;;;;4.40;2.80;;;20.90;99.90;;;;;;4993407;28;20168;-82
2023/06/23 07:26:23;;;;;;;4.50;2.87;;;20.90;99.90;;;;;;4992450;28;20424;-83
2023/06/23 07:28:49;;;;;;;4.67;3.17;;;21.00;99.90;;;;;;4993682;28;20727;-83
2023/06/23 07:31:14;;;;;;;3.83;3.00;;;21.00;99.90;;;;;;4993709;28;20235;-82
2023/06/23 07:33:41;;;;;;;5.63;3.30;;;21.00;99.90;;;;;;4993339;28;20323;-82
2023/06/23 07:36:06;;;;;;;5.03;3.27;;;21.10;99.90;;;;;;4993588;28;20255;-83
2023/06/23 07:38:32;;;;;;;4.83;3.63;;;21.10;99.90;;;;;;4993260;28;20960;-84
2023/06/23 07:40:57;;;;;;;4.43;3.87;;;21.10;99.90;;;;;;4993476;28;20247;-83
2023/06/23 07:43:23;;;;;;;5.40;2.90;;;21.10;99.90;;;;;;4980530;28;20172;-84
2023/06/23 07:45:49;;;;;;;6.07;3.80;;;21.10;99.90;;;;;;4983264;28;20184;-83
2023/06/23 07:48:14;;;;;;;5.03;3.20;;;21.10;99.90;;;;;;4984029;28;20176;-83
2023/06/23 07:50:39;;;;;;;4.70;3.87;;;21.10;99.90;;;;;;5004808;28;20169;-82
2023/06/23 07:53:05;;;;;;;4.87;3.63;;;21.10;99.90;;;;;;4981535;28;20292;-82
2023/06/23 07:55:31;;;;;;;4.50;3.47;;;21.10;99.90;;;;;;4979831;28;20177;-82
2023/06/23 07:57:56;;;;;;;6.63;5.07;;;21.10;99.90;;;;;;4980312;28;20187;-81
2023/06/23 08:00:23;;;;;;;6.47;4.80;;;21.10;99.90;;;;;;4983508;28;20299;-84
2023/06/23 08:02:49;;;;;;;6.80;4.47;;;21.00;99.90;;;;;;4993835;28;20583;-81
2023/06/23 08:05:14;;;;;;;5.77;4.50;;;21.00;99.90;;;;;;4992982;28;20412;-82
2023/06/23 08:07:49;;;;;;;6.13;5.20;;;21.00;99.90;;;;;;4990761;28;20231;-81
2023/06/23 08:10:14;;;;;;;6.57;4.80;;;21.10;99.90;;;;;;5009545;28;20186;-82
2023/06/23 08:12:40;;;;;;;7.57;5.20;;;21.10;99.90;;;;;;4987548;28;20466;-81
2023/06/23 08:15:06;;;;;;;6.80;5.40;;;21.00;99.90;;;;;;4988122;28;20211;-83
2023/06/23 08:17:32;;;;;;;5.93;5.33;;;21.10;99.90;;;;;;4977523;28;20238;-84
2023/06/23 08:19:57;;;;;;;7.17;4.07;;;21.10;99.90;;;;;;4977462;28;20478;-86
2023/06/23 08:22:23;;;;;;;6.07;4.63;;;21.10;99.90;;;;;;4977534;28;20782;-87
2023/06/23 08:24:49;;;;;;;7.07;5.40;;;21.10;99.90;;;;;;4977181;28;20237;-87
2023/06/23 08:27:14;;;;;;;8.93;5.17;;;21.10;99.90;;;;;;4977643;28;20172;-82
2023/06/23 08:29:40;;;;;;;7.30;4.30;;;21.10;99.90;;;;;;4977534;28;20530;-86
2023/06/23 08:32:06;;;;;;;6.43;4.73;;;21.00;99.90;;;;;;4977403;28;20242;-88
2023/06/23 08:34:31;;;;;;;7.93;7.13;;;21.00;99.90;;;;;;4977430;28;20635;-86
2023/06/23 08:36:57;;;;;;;7.27;4.80;;;21.00;99.90;;;;;;4977091;28;20413;-83
2023/06/23 08:39:25;;;;;;;5.20;4.20;;;21.00;99.90;;;;;;4976657;28;20684;-84
2023/06/23 08:41:51;;;;;;;6.67;4.50;;;21.00;99.90;;;;;;4977255;28;20539;-83
2023/06/23 08:44:18;;;;;;;7.63;4.80;;;21.00;99.90;;;;;;4977142;28;20443;-84
2023/06/23 08:46:47;;;;;;;8.00;4.93;;;21.10;99.90;;;;;;4977099;28;20180;-83
2023/06/23 08:49:15;;;;;;;5.40;4.37;;;21.10;99.90;;;;;;4977015;28;20414;-83
2023/06/23 08:51:41;;;;;;;5.20;3.70;;;21.10;99.90;;;;;;4976881;28;20467;-83
2023/06/23 08:54:08;;;;;;;7.07;5.20;;;21.10;99.90;;;;;;4976610;28;20424;-83
2023/06/23 08:56:33;;;;;;;5.70;4.17;;;21.10;99.90;;;;;;4975641;28;20424;-85
2023/06/23 08:58:59;;;;;;;5.70;5.20;;;21.10;99.90;;;;;;4976848;28;20483;-84
2023/06/23 09:01:26;;;;;;;6.30;4.83;;;21.20;99.90;;;;;;4976900;28;20200;-84
2023/06/23 09:03:51;;;;;;;8.10;4.80;;;21.20;99.90;;;;;;4976725;28;20490;-84
2023/06/23 09:06:17;;;;;;;4.10;3.70;;;21.20;99.90;;;;;;4992192;28;20415;-84
2023/06/23 09:08:42;;;;;;;5.20;4.67;;;21.20;99.90;;;;;;4995855;28;20246;-83
2023/06/23 09:11:08;;;;;;;5.67;5.07;;;21.30;99.90;;;;;;4996166;28;20180;-84
2023/06/23 09:13:39;;;;;;;6.77;6.03;;;21.30;99.90;;;;;;4996035;28;20215;-84
2023/06/23 09:16:04;;;;;;;9.20;4.80;;;21.40;99.90;;;;;;4993604;28;20701;-84
2023/06/23 09:18:35;;;;;;;7.10;4.40;;;21.40;99.90;;;;;;4995906;28;20466;-84
2023/06/23 09:21:04;;;;;;;8.70;5.60;;;21.40;99.90;;;;;;4995954;28;20554;-84
2023/06/23 09:23:31;;;;;;;5.40;4.90;;;21.50;99.90;;;;;;4995536;28;20418;-83
2023/06/23 09:25:56;;;;;;;7.97;5.40;;;21.50;99.90;;;;;;4995843;28;20430;-82
2023/06/23 09:28:34;;;;;;;8.50;6.00;;;21.50;99.90;;;;;;4995800;28;20781;-83
2023/06/23 09:31:09;;;;;;;9.30;6.10;;;21.50;99.90;;;;;;4995799;28;20179;-84
2023/06/23 09:33:34;;;;;;;7.53;6.50;;;21.70;99.90;;;;;;4995594;28;20511;-84
2023/06/23 09:36:04;;;;;;;5.90;5.17;;;21.70;99.90;;;;;;4995612;28;20459;-83
2023/06/23 09:38:35;;;;;;;7.57;5.83;;;21.70;99.90;;;;;;4995323;28;20170;-85
2023/06/23 09:41:11;;;;;;;6.87;6.17;;;21.80;99.90;;;;;;4995508;28;20515;-84
2023/06/23 09:43:39;;;;;;;8.00;6.20;;;21.80;99.90;;;;;;4995551;28;20415;-83
2023/06/23 09:46:06;;;;;;;7.73;5.47;;;21.90;99.90;;;;;;4995267;28;20515;-83
2023/06/23 09:48:34;;;;;;;8.90;6.60;;;22.00;99.90;;;;;;4995391;28;20422;-84
2023/06/23 09:51:04;;;;;;;6.67;6.07;;;22.10;99.90;;;;;;4995416;28;20424;-85
2023/06/23 09:53:34;;;;;;;7.97;6.07;;;22.10;99.90;;;;;;4994825;28;20476;-81
2023/06/23 09:56:05;;;;;;;9.57;6.33;;;22.10;99.90;;;;;;4995248;28;20483;-81
2023/06/23 09:58:41;;;;;;;6.20;5.60;;;22.20;99.90;;;;;;4995188;28;20416;-84
2023/06/23 10:01:10;;;;;;;6.07;5.47;;;22.30;99.90;;;;;;4995247;28;20411;-84
2023/06/23 10:03:46;;;;;;;6.50;5.90;;;22.30;99.90;;;;;;4995154;28;20413;-84
2023/06/23 10:06:37;;;;;;;7.00;5.17;;;22.30;99.90;;;;;;4995030;28;20443;-84
2023/06/23 10:09:10;;;;;;;8.23;6.00;;;22.30;99.90;;;;;;4994776;28;20500;-83
2023/06/23 10:11:40;;;;;;;7.50;5.90;;;22.40;99.90;;;;;;4994869;28;20506;-84
2023/06/23 10:14:11;;;;;;;7.00;4.97;;;22.40;99.90;;;;;;4993649;28;20425;-83
2023/06/23 10:16:41;;;;;;;6.40;5.77;;;22.40;99.90;;;;;;4994597;28;20461;-86
2023/06/23 10:19:07;;;;;;;5.47;4.40;;;22.40;99.90;;;;;;4985475;28;20449;-82
2023/06/23 10:21:32;;;;;;;6.97;4.33;;;22.50;99.90;;;;;;4982535;28;20481;-84
2023/06/23 10:24:08;;;;;;;8.23;3.97;;;22.60;99.90;;;;;;4979802;28;20437;-83
2023/06/23 10:26:36;;;;;;;5.60;4.60;;;22.70;99.90;;;;;;4988862;28;20586;-81
2023/06/23 10:29:08;;;;;;;7.57;4.90;;;22.70;99.90;;;;;;4988247;28;20445;-85
2023/06/23 10:31:35;;;;;;;4.70;3.67;;;22.70;99.90;;;;;;4977852;28;20431;-81
2023/06/23 10:34:05;;;;;;;6.77;4.17;;;22.80;99.90;;;;;;4984723;28;20515;-83
2023/06/23 10:36:35;;;;;;;7.10;4.67;;;22.80;99.90;;;;;;4994538;28;20758;-84
2023/06/23 10:39:03;;;;;;;5.47;4.60;;;22.80;99.90;;;;;;4994174;28;20418;-83
2023/06/23 10:41:29;;;;;;;5.83;3.93;;;22.80;99.90;;;;;;4994490;28;20460;-82
2023/06/23 10:43:56;;;;;;;4.67;3.90;;;22.70;99.90;;;;;;4994437;28;20773;-83
2023/06/23 10:46:25;;;;;;;5.70;4.70;;;22.70;99.90;;;;;;4994150;28;20417;-84
2023/06/23 10:48:54;;;;;;;5.40;3.30;;;22.70;99.90;;;;;;4994322;28;20915;-80
2023/06/23 10:51:20;;;;;;;8.63;4.47;;;22.70;99.90;;;;;;4994133;28;20830;-80
2023/06/23 10:54:02;;;;;;;6.30;5.43;;;22.70;99.90;;;;;;4993810;28;20562;-81
2023/06/23 10:56:36;;;;;;;6.20;4.60;;;22.70;99.90;;;;;;4994021;28;20492;-80
2023/06/23 10:59:19;;;;;;;6.37;4.63;;;22.70;99.90;;;;;;4994074;28;20437;-80
2023/06/23 11:02:00;;;;;;;6.13;4.90;;;22.70;99.90;;;;;;4994084;28;20418;-80
2023/06/23 11:04:27;;;;;;;6.03;3.60;;;22.80;99.90;;;;;;4994007;28;20429;-84
2023/06/23 11:07:02;;;;;;;7.40;4.93;;;22.80;99.90;;;;;;4993904;28;20442;-87
2023/06/23 11:09:54;;;;;;;4.70;4.20;;;22.90;99.90;;;;;;4984274;28;20533;-85
2023/06/23 11:12:41;;;;;;;6.57;5.93;;;22.90;99.90;;;;;;4974374;28;20465;-86
2023/06/23 11:15:20;;;;;;;8.53;5.50;;;22.90;99.90;;;;;;4974270;28;20457;-81
2023/06/23 11:17:47;;;;;;;6.80;5.93;;;23.00;99.90;;;;;;4974454;28;20470;-86
2023/06/23 11:20:24;;;;;;;5.83;4.90;;;22.80;99.90;;;;;;4974407;28;20426;-85
2023/06/23 11:23:05;;;;;;;5.43;4.10;;;22.90;99.90;;;;;;4974044;28;20964;-82
2023/06/23 11:25:33;;;;;;;6.40;5.00;;;22.90;99.90;;;;;;4974347;28;20958;-81
2023/06/23 11:28:28;;;;;;;7.27;5.30;;;23.00;99.90;;;;;;4981677;28;20476;-82
2023/06/23 11:31:10;;;;;;;6.23;5.47;;;22.90;99.90;;;;;;4992006;28;20422;-86
2023/06/23 11:33:43;;;;;;;5.83;5.23;;;22.80;99.90;;;;;;4985311;28;20578;-87
2023/06/23 11:36:20;;;;;;;5.27;4.77;;;22.80;99.90;;;;;;4990079;28;20433;-86
2023/06/23 11:38:45;;;;;;;7.37;5.70;;;22.80;99.90;;;;;;4988409;28;20448;-85
2023/06/23 11:41:23;;;;;;;7.70;5.90;;;22.70;99.90;;;;;;4993323;28;20418;-86
2023/06/23 11:43:48;;;;;;;6.47;5.80;;;22.70;99.90;;;;;;4987390;28;20185;-84
2023/06/23 11:46:16;;;;;;;6.30;5.43;;;22.70;99.90;;;;;;4993046;28;20428;-86
2023/06/23 11:48:46;;;;;;;7.63;5.70;;;22.80;99.90;;;;;;4993404;28;20236;-86
2023/06/23 11:51:15;;;;;;;6.27;5.17;;;22.80;99.90;;;;;;4993495;28;20453;-85
2023/06/23 11:53:45;;;;;;;7.13;6.40;;;23.00;99.90;;;;;;4992600;28;20472;-83
2023/06/23 11:56:15;;;;;;;6.63;5.70;;;23.00;99.90;;;;;;4993344;28;20420;-85
2023/06/23 11:58:41;;;;;;;8.73;6.57;;;23.10;99.90;;;;;;4993314;28;20424;-85
2023/06/23 12:01:06;;;;;;;10.30;8.10;;;23.20;99.90;;;;;;4993478;28;20475;-86
2023/06/23 12:03:32;;;;;;;7.67;6.43;;;23.20;99.90;;;;;;4993243;28;20570;-86
2023/06/23 12:06:02;;;;;;;15.97;8.10;;;23.20;99.90;;;;;;4993304;28;20524;-87
2023/06/23 12:08:28;;;;;;;11.57;7.50;;;23.20;99.90;;;;;;4993014;28;20429;-82
2023/06/23 12:10:54;;;;;;;9.53;7.97;;;23.20;99.90;;;;;;4993369;28;20452;-85
2023/06/23 12:13:20;;;;;;;8.20;7.40;;;23.20;99.90;;;;;;4993221;28;20471;-87
2023/06/23 12:15:48;;;;;;;9.30;7.93;;;23.20;99.90;;;;;;4993089;28;20470;-86
2023/06/23 12:18:14;;;;;;;10.80;9.70;;;23.10;99.90;;;;;;4993257;28;20424;-87
2023/06/23 12:20:43;;;;;;;10.57;9.00;;;23.10;99.90;;;;;;4993539;28;20495;-87
2023/06/23 12:23:13;;;;;;;10.47;9.27;;;23.20;99.90;;;;;;4992116;28;20180;-80
2023/06/23 12:25:44;;;;;;;10.33;8.00;;;23.20;99.90;;;;;;5005233;28;20941;-87
2023/06/23 12:28:17;;;;;;;9.93;8.93;;;23.20;99.90;;;;;;4992824;28;20418;-85
2023/06/23 12:30:44;;;;;;;11.90;8.40;;;23.20;99.90;;;;;;4992665;28;20427;-80
2023/06/23 12:33:21;;;;;;;10.20;9.10;;;23.30;99.90;;;;;;4992757;28;20564;-80
2023/06/23 12:35:56;;;;;;;13.00;9.40;;;23.40;99.90;;;;;;4992847;28;20411;-81
2023/06/23 12:38:22;;;;;;;13.23;10.13;;;23.30;99.90;;;;;;4991476;28;20745;-87
2023/06/23 12:40:48;;;;;;;10.07;9.10;;;23.40;99.90;;;;;;4992721;28;20413;-81
2023/06/23 12:43:13;;;;;;;11.43;8.77;;;23.40;99.90;;;;;;4991369;28;20442;-81
2023/06/23 12:45:39;;;;;;;11.30;8.70;;;23.50;99.90;;;;;;4992660;28;20635;-83
2023/06/23 12:48:08;;;;;;;9.03;8.13;;;23.60;99.90;;;;;;4992714;28;20173;-79
2023/06/23 12:50:34;;;;;;;9.83;8.40;;;23.70;99.90;;;;;;4994096;28;20182;-80
2023/06/23 12:53:00;;;;;;;9.70;7.40;;;23.90;99.90;;;;;;4995794;28;20556;-83
2023/06/23 12:55:25;;;;;;;9.27;8.00;;;23.90;99.90;;;;;;4995719;28;20428;-81